Time;durP1;ratioP1;P1;durP2;ratioP2;P2;SDS_P1;SDS_P2;PMS_P1;PMS_P2;Temp;Humidity;BMP_temperature;BMP_pressure;BME280_temperature;BME280_humidity;BME280_pressure;Samples;Min_cycle;Max_cycle;Signal;HPM_P1;HPM_P2
2020/12/10 00:01:18;;;;;;;19.43;10.50;;;;;;;2.01;97.31;99702.20;644674;222;24821;-74
2020/12/10 00:03:47;;;;;;;22.50;10.63;;;;;;;2.15;97.18;99700.80;649788;221;24825;-75
2020/12/10 00:06:18;;;;;;;16.47;10.87;;;;;;;2.39;96.33;99695.71;642340;222;26965;-74
2020/12/10 00:08:46;;;;;;;17.23;11.20;;;;;;;2.42;95.55;99680.59;642263;221;24828;-75
2020/12/10 00:11:14;;;;;;;18.83;11.20;;;;;;;2.29;95.56;99680.16;642659;221;24811;-75
2020/12/10 00:13:42;;;;;;;16.77;10.67;;;;;;;2.02;96.81;99684.59;645901;221;24831;-74
2020/12/10 00:16:12;;;;;;;19.45;12.40;;;;;;;2.21;96.26;99684.16;638724;221;32919;-75
2020/12/10 00:18:40;;;;;;;19.85;12.93;;;;;;;2.30;95.65;99679.22;637396;221;32860;-75
2020/12/10 00:21:07;;;;;;;15.93;11.10;;;;;;;2.19;95.69;99674.00;648280;221;23796;-75
2020/12/10 00:23:35;;;;;;;17.30;11.50;;;;;;;2.14;95.92;99673.52;636292;225;24823;-74
2020/12/10 00:26:03;;;;;;;16.40;10.23;;;;;;;2.23;95.58;99667.73;636356;225;24834;-74
2020/12/10 00:28:31;;;;;;;13.80;9.90;;;;;;;2.30;95.47;99659.98;636110;225;24849;-74
2020/12/10 00:30:59;;;;;;;16.53;10.37;;;;;;;2.26;95.45;99661.12;639132;223;24797;-75
2020/12/10 00:33:27;;;;;;;13.70;9.40;;;;;;;2.33;95.43;99657.20;635980;226;24879;-75
2020/12/10 00:35:55;;;;;;;16.10;10.27;;;;;;;2.38;95.28;99658.97;636156;225;24855;-75
2020/12/10 00:38:22;;;;;;;14.87;9.67;;;;;;;2.30;94.94;99647.16;649000;221;24760;-75
2020/12/10 00:40:50;;;;;;;17.47;10.30;;;;;;;2.32;95.07;99642.73;632086;225;24870;-75
2020/12/10 00:43:18;;;;;;;13.77;9.37;;;;;;;2.45;95.13;99642.70;647197;221;24849;-74
2020/12/10 00:45:47;;;;;;;16.33;9.87;;;;;;;2.49;94.75;99634.31;648327;221;24762;-74
2020/12/10 00:48:14;;;;;;;16.47;10.20;;;;;;;2.68;94.45;99638.05;635874;225;28002;-75
2020/12/10 00:50:42;;;;;;;14.20;9.70;;;;;;;2.84;93.97;99631.81;635332;223;24808;-74
2020/12/10 00:53:10;;;;;;;13.70;9.70;;;;;;;2.75;93.71;99632.00;645450;219;24775;-74
2020/12/10 00:55:38;;;;;;;14.93;9.47;;;;;;;2.84;93.82;99631.34;641271;221;25211;-75
2020/12/10 00:58:05;;;;;;;13.53;9.00;;;;;;;2.78;93.64;99630.48;643852;220;24866;-75
2020/12/10 01:00:33;;;;;;;15.13;9.93;;;;;;;2.93;93.52;99631.95;634735;225;26955;-75
2020/12/10 01:03:01;;;;;;;14.70;9.67;;;;;;;2.81;93.39;99632.02;637015;225;24824;-74
2020/12/10 01:05:29;;;;;;;15.17;9.60;;;;;;;2.76;93.61;99633.64;638348;224;24819;-75
2020/12/10 01:07:57;;;;;;;15.33;10.37;;;;;;;2.86;93.68;99635.91;635133;225;25076;-74
2020/12/10 01:10:25;;;;;;;16.45;11.73;;;;;;;3.60;91.95;99628.73;635309;222;43557;-75
2020/12/10 01:12:53;;;;;;;17.73;12.45;;;;;;;3.80;90.35;99615.20;639490;221;32854;-75
2020/12/10 01:15:21;;;;;;;17.20;10.97;;;;;;;3.22;91.56;99618.27;639484;221;27944;-74
2020/12/10 01:17:49;;;;;;;13.03;9.70;;;;;;;3.24;91.83;99619.46;640825;221;24838;-73
2020/12/10 01:20:17;;;;;;;17.80;10.10;;;;;;;3.08;91.40;99607.36;645841;221;24823;-74
2020/12/10 01:22:45;;;;;;;15.40;10.73;;;;;;;3.05;92.34;99613.55;646771;221;24825;-75
2020/12/10 01:25:12;;;;;;;18.63;11.20;;;;;;;3.13;92.08;99621.53;643942;221;24825;-75
2020/12/10 01:27:40;;;;;;;16.90;9.80;;;;;;;3.09;92.39;99617.98;645441;221;26973;-75
2020/12/10 01:30:08;;;;;;;13.60;9.97;;;;;;;3.08;92.29;99618.92;643652;222;24822;-75
2020/12/10 01:32:36;;;;;;;15.20;10.03;;;;;;;2.97;92.39;99615.41;640315;222;24825;-75
2020/12/10 01:35:04;;;;;;;17.60;10.53;;;;;;;3.01;92.49;99617.75;646442;221;24871;-75
2020/12/10 01:37:32;;;;;;;14.20;9.47;;;;;;;3.02;92.65;99610.39;643626;222;24820;-75
2020/12/10 01:40:00;;;;;;;14.53;10.47;;;;;;;2.97;92.63;99616.70;643162;221;25954;-74
2020/12/10 01:42:28;;;;;;;16.07;9.63;;;;;;;2.96;92.82;99615.53;643366;222;24824;-75
2020/12/10 01:44:56;;;;;;;15.03;10.40;;;;;;;2.97;92.63;99623.58;643939;221;24831;-75
2020/12/10 01:47:25;;;;;;;17.70;10.30;;;;;;;2.96;92.90;99613.78;643633;221;26197;-74
2020/12/10 01:49:53;;;;;;;16.20;11.43;;;;;;;3.39;91.81;99607.22;636214;222;33069;-75
2020/12/10 01:52:21;;;;;;;14.10;10.43;;;;;;;3.09;92.39;99602.58;646254;221;23736;-75
2020/12/10 01:54:48;;;;;;;18.40;12.90;;;;;;;3.58;90.73;99599.29;640462;222;32796;-75
2020/12/10 01:57:16;;;;;;;16.90;12.50;;;;;;;3.63;90.28;99584.80;637971;221;32955;-75
2020/12/10 01:59:44;;;;;;;16.67;12.33;;;;;;;3.72;89.62;99578.14;638621;221;32907;-75
2020/12/10 02:02:12;;;;;;;17.03;11.63;;;;;;;3.18;91.39;99593.73;638023;221;23675;-74
2020/12/10 02:04:40;;;;;;;18.90;12.50;;;;;;;3.41;91.54;99596.36;641189;220;26995;-74
2020/12/10 02:07:08;;;;;;;17.80;11.40;;;;;;;3.07;92.25;99594.17;645975;220;24814;-75
2020/12/10 02:09:35;;;;;;;16.03;10.00;;;;;;;2.91;92.77;99596.58;640940;220;24818;-75
2020/12/10 02:12:03;;;;;;;17.00;11.03;;;;;;;2.91;93.33;99599.14;648716;220;24835;-75
2020/12/10 02:14:33;;;;;;;19.13;10.70;;;;;;;2.96;93.23;99595.80;649052;221;24808;-75
2020/12/10 02:17:01;;;;;;;14.70;10.30;;;;;;;2.96;93.33;99594.52;649508;221;24768;-75
2020/12/10 02:19:29;;;;;;;17.95;13.22;;;;;;;3.43;91.22;99590.63;644108;220;32743;-75
2020/12/10 02:21:57;;;;;;;16.60;12.85;;;;;;;3.80;90.18;99570.64;631515;224;32821;-74
2020/12/10 02:24:25;;;;;;;18.13;11.37;;;;;;;3.20;91.25;99575.64;643903;221;23727;-74
2020/12/10 02:26:53;;;;;;;19.77;11.10;;;;;;;3.08;92.17;99579.92;648433;221;24851;-74
2020/12/10 02:29:21;;;;;;;18.00;11.40;;;;;;;3.21;92.40;99586.27;643078;220;24833;-74
2020/12/10 02:31:48;;;;;;;17.13;10.60;;;;;;;3.11;92.37;99576.34;649702;221;28119;-75
2020/12/10 02:34:16;;;;;;;21.53;11.43;;;;;;;2.94;92.99;99580.94;643382;221;24820;-75
2020/12/10 02:36:44;;;;;;;17.40;11.70;;;;;;;3.17;92.48;99577.97;648592;221;24826;-75
2020/12/10 02:39:12;;;;;;;19.33;11.93;;;;;;;3.09;92.20;99566.15;644583;222;24827;-75
2020/12/10 02:41:40;;;;;;;17.50;10.87;;;;;;;3.00;92.54;99568.59;647998;222;24817;-75
2020/12/10 02:44:08;;;;;;;21.50;11.70;;;;;;;2.58;93.63;99565.19;640459;221;24862;-75
2020/12/10 02:46:36;;;;;;;19.57;11.77;;;;;;;2.79;93.47;99557.67;646995;221;24830;-75
2020/12/10 02:49:04;;;;;;;18.40;11.70;;;;;;;2.82;93.29;99551.05;647704;222;24872;-74
2020/12/10 02:51:32;;;;;;;20.72;14.05;;;;;;;3.24;91.34;99550.91;642404;221;32833;-74
2020/12/10 02:53:59;;;;;;;20.23;12.27;;;;;;;3.01;92.13;99546.65;643393;222;23707;-74
2020/12/10 02:56:27;;;;;;;21.80;12.60;;;;;;;2.90;92.62;99548.72;643573;222;24820;-73
2020/12/10 02:58:55;;;;;;;20.00;12.80;;;;;;;3.10;92.54;99542.59;638425;221;24779;-74
2020/12/10 03:01:23;;;;;;;19.40;11.90;;;;;;;2.98;92.57;99533.58;643882;221;27069;-74
2020/12/10 03:03:51;;;;;;;17.77;11.50;;;;;;;2.84;92.50;99533.78;647586;222;24818;-74
2020/12/10 03:06:19;;;;;;;20.20;12.40;;;;;;;2.95;92.71;99531.21;648394;221;28029;-74
2020/12/10 03:08:47;;;;;;;21.80;12.70;;;;;;;2.94;92.29;99529.58;646216;221;24814;-74
2020/12/10 03:11:16;;;;;;;20.50;11.27;;;;;;;2.88;92.56;99527.48;642231;221;28032;-74
2020/12/10 03:13:44;;;;;;;21.00;11.37;;;;;;;2.78;92.77;99523.94;645560;221;24826;-74
2020/12/10 03:16:11;;;;;;;17.50;11.30;;;;;;;2.80;92.90;99526.39;640819;222;24836;-74
2020/12/10 03:18:39;;;;;;;14.60;10.20;;;;;;;2.88;93.08;99527.94;638164;224;24822;-74
2020/12/10 03:21:07;;;;;;;17.03;10.40;;;;;;;2.78;93.16;99524.41;649995;220;26907;-73
2020/12/10 03:23:35;;;;;;;17.23;10.83;;;;;;;2.80;93.41;99521.25;637667;224;24829;-74
2020/12/10 03:26:03;;;;;;;20.97;12.10;;;;;;;2.64;93.57;99521.56;636277;225;24826;-74
2020/12/10 03:28:31;;;;;;;19.27;12.67;;;;;;;2.63;93.94;99513.52;637629;225;24915;-74
2020/12/10 03:30:58;;;;;;;16.50;10.80;;;;;;;2.57;94.17;99522.48;649357;220;24800;-74
2020/12/10 03:33:26;;;;;;;19.60;12.10;;;;;;;2.51;94.95;99515.69;649017;221;24824;-73
2020/12/10 03:35:54;;;;;;;19.20;11.80;;;;;;;2.47;95.05;99515.56;636680;225;25098;-74
2020/12/10 03:38:22;;;;;;;18.47;11.27;;;;;;;2.45;95.57;99511.83;638580;224;24814;-74
2020/12/10 03:40:50;;;;;;;18.27;12.37;;;;;;;2.41;96.27;99507.86;636741;220;24838;-74
2020/12/10 03:43:18;;;;;;;19.13;12.40;;;;;;;2.31;96.40;99508.97;650860;221;24787;-74
2020/12/10 03:45:46;;;;;;;19.10;11.37;;;;;;;2.45;96.28;99494.33;636806;225;24834;-73
2020/12/10 03:48:13;;;;;;;19.73;11.53;;;;;;;2.58;95.84;99489.94;638763;220;24825;-74
2020/12/10 03:50:41;;;;;;;19.80;12.93;;;;;;;2.61;95.49;99494.38;636548;224;25276;-74
2020/12/10 03:53:09;;;;;;;18.80;13.70;;;;;;;3.07;94.03;99483.72;642759;220;32603;-74
2020/12/10 03:55:37;;;;;;;22.87;14.03;;;;;;;2.80;94.22;99486.59;636752;224;23714;-73
2020/12/10 03:58:05;;;;;;;18.33;12.20;;;;;;;2.89;94.10;99480.32;648577;217;24802;-74
2020/12/10 04:00:33;;;;;;;20.30;12.37;;;;;;;2.91;94.22;99478.92;636329;225;24842;-74
2020/12/10 04:03:01;;;;;;;19.00;12.20;;;;;;;2.97;93.95;99479.30;640732;221;26980;-74
2020/12/10 04:05:29;;;;;;;20.00;13.03;;;;;;;2.94;93.70;99480.78;641892;221;24822;-74
2020/12/10 04:07:56;;;;;;;19.73;12.10;;;;;;;2.74;94.53;99475.51;646179;221;24843;-74
2020/12/10 04:10:24;;;;;;;20.57;11.97;;;;;;;2.72;94.34;99476.91;641513;221;24810;-74
2020/12/10 04:12:52;;;;;;;20.40;12.20;;;;;;;2.56;95.41;99472.56;642323;221;24882;-73
2020/12/10 04:15:20;;;;;;;18.97;12.13;;;;;;;2.50;95.59;99466.58;640708;221;24896;-73
2020/12/10 04:17:48;;;;;;;22.10;13.17;;;;;;;2.68;95.98;99471.19;646727;221;24879;-74
2020/12/10 04:20:16;;;;;;;17.43;12.00;;;;;;;2.63;95.70;99459.14;647494;219;24794;-74
2020/12/10 04:22:44;;;;;;;22.60;15.13;;;;;;;3.43;93.08;99450.09;636500;222;32842;-73
2020/12/10 04:25:12;;;;;;;23.22;15.60;;;;;;;3.67;91.74;99443.98;640626;222;32696;-76
2020/12/10 04:27:39;;;;;;;23.65;16.50;;;;;;;3.68;91.88;99440.48;635220;219;32995;-74
2020/12/10 04:30:07;;;;;;;24.00;17.27;;;;;;;3.16;92.87;99438.08;646573;220;23691;-74
2020/12/10 04:32:35;;;;;;;23.23;15.17;;;;;;;2.89;93.76;99451.25;642878;223;27005;-73
2020/12/10 04:35:03;;;;;;;23.33;14.53;;;;;;;2.96;94.37;99455.02;649658;220;24773;-74
2020/12/10 04:37:31;;;;;;;23.70;14.70;;;;;;;2.89;94.38;99457.21;649787;220;27932;-75
2020/12/10 04:39:59;;;;;;;20.77;13.60;;;;;;;2.83;94.33;99454.30;648944;220;24758;-74
2020/12/10 04:42:27;;;;;;;19.73;13.27;;;;;;;2.68;94.72;99462.20;649131;220;24762;-74
2020/12/10 04:44:55;;;;;;;22.90;12.77;;;;;;;2.59;95.69;99459.03;649619;221;24783;-74
2020/12/10 04:47:23;;;;;;;21.93;13.40;;;;;;;2.67;95.52;99466.99;637555;224;27996;-74
2020/12/10 04:49:51;;;;;;;20.68;14.05;;;;;;;3.15;94.20;99459.56;631220;225;43545;-74
2020/12/10 04:52:19;;;;;;;19.57;12.30;;;;;;;2.83;95.11;99452.55;650695;221;23773;-74
2020/12/10 04:54:47;;;;;;;20.70;12.40;;;;;;;2.69;95.52;99455.33;637112;225;25085;-74
2020/12/10 04:57:15;;;;;;;21.83;13.33;;;;;;;2.90;94.99;99449.85;637699;225;24838;-75
2020/12/10 04:59:42;;;;;;;19.40;12.60;;;;;;;2.95;94.69;99441.80;638376;223;24811;-75
2020/12/10 05:02:11;;;;;;;23.23;13.13;;;;;;;2.78;95.43;99444.81;644693;221;24796;-75
2020/12/10 05:04:39;;;;;;;20.33;12.57;;;;;;;2.85;94.99;99437.84;636164;225;24832;-75
2020/12/10 05:07:06;;;;;;;20.40;12.73;;;;;;;2.89;94.88;99438.42;639683;224;24821;-75
2020/12/10 05:09:34;;;;;;;22.23;13.90;;;;;;;2.87;95.22;99431.30;636920;222;24841;-75
2020/12/10 05:12:02;;;;;;;25.60;13.77;;;;;;;2.73;95.65;99427.67;648288;220;24744;-74
2020/12/10 05:14:41;;;;;;;21.03;13.60;;;;;;;2.68;95.77;99431.88;644910;221;27946;-74
2020/12/10 05:17:11;;;;;;;20.03;12.00;;;;;;;2.69;95.54;99430.94;636013;225;26067;-75
2020/12/10 05:19:39;;;;;;;19.55;13.78;;;;;;;3.09;94.63;99428.72;642975;220;32640;-75
2020/12/10 05:22:07;;;;;;;23.50;15.88;;;;;;;3.32;93.79;99420.55;630960;225;32801;-74
2020/12/10 05:24:35;;;;;;;21.77;14.00;;;;;;;2.81;94.71;99417.16;636260;226;23696;-74
2020/12/10 05:27:14;;;;;;;22.33;13.90;;;;;;;2.89;94.97;99423.83;649878;221;24769;-75
2020/12/10 05:29:42;;;;;;;25.00;14.60;;;;;;;2.92;94.98;99418.92;646068;221;24820;-74
2020/12/10 05:32:11;;;;;;;20.60;13.10;;;;;;;2.77;95.44;99411.09;648045;221;24826;-74
2020/12/10 05:34:39;;;;;;;20.53;13.73;;;;;;;2.59;95.48;99409.45;647205;221;24797;-73
2020/12/10 05:37:07;;;;;;;18.97;13.57;;;;;;;2.45;96.29;99404.52;645047;221;24797;-72
2020/12/10 05:39:34;;;;;;;20.37;12.33;;;;;;;2.42;96.00;99408.61;650236;219;24770;-74
2020/12/10 05:42:02;;;;;;;22.50;14.03;;;;;;;2.46;97.35;99418.98;649769;220;24901;-73
2020/12/10 05:44:30;;;;;;;22.50;13.87;;;;;;;2.41;97.45;99418.52;637026;224;24838;-73
2020/12/10 05:47:03;;;;;;;20.37;12.67;;;;;;;2.45;97.34;99425.86;650949;220;24777;-74
2020/12/10 05:49:31;;;;;;;16.73;11.30;;;;;;;2.48;97.33;99425.62;647583;221;24769;-74
2020/12/10 05:51:59;;;;;;;20.00;12.77;;;;;;;2.64;96.90;99424.03;636797;225;24842;-74
2020/12/10 05:54:27;;;;;;;20.73;13.40;;;;;;;2.70;96.02;99415.06;636790;225;24851;-74
2020/12/10 05:56:55;;;;;;;23.27;13.47;;;;;;;2.67;96.33;99417.38;638897;224;24838;-74
2020/12/10 05:59:24;;;;;;;21.50;13.23;;;;;;;2.52;96.46;99419.80;636418;224;24911;-73
2020/12/10 06:01:52;;;;;;;20.73;13.50;;;;;;;2.56;96.97;99424.61;636538;225;24808;-75
2020/12/10 06:04:19;;;;;;;20.37;12.40;;;;;;;2.68;96.48;99419.04;636173;226;28030;-74
2020/12/10 06:06:47;;;;;;;20.40;13.13;;;;;;;2.52;96.81;99420.62;637978;224;24834;-75
2020/12/10 06:09:15;;;;;;;18.23;12.80;;;;;;;2.60;96.79;99416.21;636659;225;24844;-75
2020/12/10 06:11:43;;;;;;;22.50;13.77;;;;;;;2.69;96.54;99420.67;640596;221;24832;-75
2020/12/10 06:14:11;;;;;;;26.20;13.53;;;;;;;2.61;96.79;99409.67;643093;221;26987;-75
2020/12/10 06:16:39;;;;;;;22.40;13.57;;;;;;;2.62;97.08;99427.18;642064;221;26037;-74
2020/12/10 06:19:08;;;;;;;22.40;13.50;;;;;;;2.56;97.59;99432.31;644783;221;32339;-75
2020/12/10 06:21:36;;;;;;;24.47;14.37;;;;;;;2.59;97.16;99426.12;645171;222;24822;-76
2020/12/10 06:24:28;;;;;;;21.80;12.97;;;;;;;2.29;98.04;99430.48;642038;222;25165;-74
2020/12/10 06:26:56;;;;;;;23.23;14.00;;;;;;;2.50;98.04;99429.36;646492;221;24869;-75
2020/12/10 06:29:25;;;;;;;21.83;13.80;;;;;;;2.53;98.27;99435.55;640333;222;24813;-74
2020/12/10 06:32:02;;;;;;;22.80;14.33;;;;;;;2.56;98.11;99440.48;640556;221;25036;-74
2020/12/10 06:34:34;;;;;;;29.45;18.27;;;;;;;3.14;96.03;99436.09;637808;222;32768;-75
2020/12/10 06:37:13;;;;;;;28.27;16.50;;;;;;;2.87;95.90;99432.12;645867;222;24876;-75
2020/12/10 06:39:41;;;;;;;27.30;16.17;;;;;;;2.74;96.25;99433.97;639051;221;25059;-75
2020/12/10 06:42:09;;;;;;;25.77;14.20;;;;;;;2.52;96.42;99437.30;642140;222;24799;-74
2020/12/10 06:44:37;;;;;;;24.43;13.80;;;;;;;2.53;96.39;99438.93;643643;221;24942;-74
2020/12/10 06:47:05;;;;;;;25.83;15.27;;;;;;;2.60;96.37;99429.05;640285;221;24852;-74
2020/12/10 06:49:32;;;;;;;24.27;14.80;;;;;;;2.74;95.53;99428.02;646305;221;24801;-73
2020/12/10 06:52:10;;;;;;;23.93;13.77;;;;;;;3.01;95.00;99430.26;639458;221;24807;-75
2020/12/10 06:54:58;;;;;;;27.60;14.07;;;;;;;2.93;94.88;99430.83;648393;220;24822;-74
2020/12/10 06:57:26;;;;;;;24.30;14.43;;;;;;;2.74;95.04;99432.69;644347;220;24842;-75
2020/12/10 06:59:54;;;;;;;25.20;14.70;;;;;;;2.81;95.42;99437.70;643565;220;24813;-75
2020/12/10 07:02:24;;;;;;;25.63;14.50;;;;;;;2.60;95.96;99436.75;643326;220;24805;-74
2020/12/10 07:04:50;;;;;;;25.33;14.43;;;;;;;2.50;96.44;99440.45;644506;221;24804;-75
2020/12/10 07:07:19;;;;;;;23.13;13.50;;;;;;;2.56;96.79;99440.48;648673;221;28013;-75
2020/12/10 07:09:48;;;;;;;20.23;13.30;;;;;;;2.71;96.00;99438.52;640023;221;24821;-74
2020/12/10 07:12:20;;;;;;;22.57;12.90;;;;;;;2.61;95.79;99440.48;646023;222;24846;-75
2020/12/10 07:14:50;;;;;;;20.83;12.20;;;;;;;2.61;95.58;99436.63;643379;221;26413;-75
2020/12/10 07:17:16;;;;;;;24.17;14.40;;;;;;;2.58;95.76;99430.91;649274;221;24844;-75
2020/12/10 07:19:44;;;;;;;20.53;12.10;;;;;;;2.48;96.04;99437.64;648141;221;24814;-75
2020/12/10 07:22:12;;;;;;;22.50;13.37;;;;;;;2.56;95.86;99436.16;647428;221;24829;-75
2020/12/10 07:24:40;;;;;;;25.13;14.17;;;;;;;2.58;96.23;99436.86;638223;222;24810;-75
2020/12/10 07:27:11;;;;;;;24.57;16.20;;;;;;;2.77;95.94;99440.15;640459;221;43776;-75
2020/12/10 07:29:39;;;;;;;24.13;14.67;;;;;;;2.55;96.00;99433.25;641369;222;23681;-74
2020/12/10 07:32:09;;;;;;;20.43;13.47;;;;;;;2.58;96.43;99441.17;636035;225;24828;-74
2020/12/10 07:34:42;;;;;;;21.20;12.33;;;;;;;2.44;96.12;99430.64;636041;225;24832;-75
2020/12/10 07:37:11;;;;;;;20.57;12.93;;;;;;;2.43;96.50;99429.02;636985;223;26916;-75
2020/12/10 07:39:38;;;;;;;20.10;12.73;;;;;;;2.41;96.03;99426.22;635863;226;24866;-75
2020/12/10 07:42:07;;;;;;;22.00;13.10;;;;;;;2.43;95.74;99422.59;648411;222;24811;-74
2020/12/10 07:44:35;;;;;;;21.20;12.70;;;;;;;2.40;96.23;99427.97;636740;225;24814;-75
2020/12/10 07:47:03;;;;;;;20.77;11.13;;;;;;;2.51;96.13;99427.97;637239;223;26940;-75
2020/12/10 07:49:30;;;;;;;18.63;11.90;;;;;;;2.49;96.42;99432.40;650022;221;24769;-75
2020/12/10 07:52:03;;;;;;;21.37;12.90;;;;;;;2.42;96.75;99434.27;636515;225;24833;-74
2020/12/10 07:54:44;;;;;;;22.77;12.87;;;;;;;2.50;97.02;99424.23;636222;226;24812;-75
2020/12/10 07:57:14;;;;;;;22.93;13.30;;;;;;;2.57;96.43;99424.96;644154;222;24757;-74
2020/12/10 07:59:42;;;;;;;24.30;13.67;;;;;;;2.58;95.86;99426.59;635601;225;24836;-74
2020/12/10 08:02:10;;;;;;;24.63;15.20;;;;;;;2.83;95.31;99426.05;642168;220;43516;-73
2020/12/10 08:04:38;;;;;;;22.03;14.87;;;;;;;2.58;96.24;99433.48;650412;220;23688;-73
2020/12/10 08:07:06;;;;;;;18.87;12.97;;;;;;;2.62;96.94;99440.02;642794;221;24842;-74
2020/12/10 08:09:34;;;;;;;22.60;13.13;;;;;;;2.68;96.12;99435.72;638442;222;25010;-74
2020/12/10 08:12:02;;;;;;;21.30;13.57;;;;;;;2.66;95.67;99438.84;644075;221;27135;-73
2020/12/10 08:14:30;;;;;;;24.83;13.17;;;;;;;2.64;96.28;99438.95;644864;220;24811;-74
2020/12/10 08:16:58;;;;;;;25.63;14.20;;;;;;;2.65;96.61;99448.76;636126;225;24893;-73
2020/12/10 08:19:26;;;;;;;21.40;12.60;;;;;;;2.71;96.66;99448.79;637105;226;24814;-74
2020/12/10 08:21:54;;;;;;;21.63;13.70;;;;;;;2.73;96.23;99449.48;649006;221;24851;-73
2020/12/10 08:24:32;;;;;;;22.70;13.30;;;;;;;2.76;96.61;99446.69;640645;222;24862;-73
2020/12/10 08:27:00;;;;;;;20.93;13.27;;;;;;;2.75;96.89;99457.89;636715;222;24845;-73
2020/12/10 08:29:28;;;;;;;19.37;13.20;;;;;;;2.76;96.36;99453.92;643227;222;24816;-73
2020/12/10 08:32:06;;;;;;;21.30;12.87;;;;;;;2.58;96.77;99459.96;641653;222;24833;-74
2020/12/10 08:34:34;;;;;;;18.37;11.70;;;;;;;2.71;96.75;99453.92;636456;225;24848;-74
2020/12/10 08:37:04;;;;;;;23.40;13.53;;;;;;;2.66;97.05;99462.77;638728;224;24823;-73
2020/12/10 08:39:33;;;;;;;20.07;12.87;;;;;;;2.83;96.86;99460.25;648684;221;27257;-73
2020/12/10 08:42:01;;;;;;;17.80;11.87;;;;;;;2.67;97.43;99452.02;635394;225;25201;-73
2020/12/10 08:44:44;;;;;;;24.02;14.33;;;;;;;2.99;96.54;99452.20;637722;222;32577;-73
2020/12/10 08:47:13;;;;;;;21.33;14.78;;;;;;;3.08;95.49;99442.97;627068;225;33042;-74
2020/12/10 08:49:41;;;;;;;21.80;14.97;;;;;;;3.33;94.16;99433.73;630692;224;32802;-74
2020/12/10 08:52:08;;;;;;;22.53;15.20;;;;;;;3.47;92.83;99427.06;631821;225;32773;-73
2020/12/10 08:54:36;;;;;;;21.60;15.25;;;;;;;3.56;91.68;99419.11;629616;225;32773;-74
2020/12/10 08:57:10;;;;;;;25.62;16.12;;;;;;;3.58;92.62;99421.91;642660;221;32604;-73
2020/12/10 08:59:32;;;;;;;22.23;14.00;;;;;;;3.36;92.86;99423.22;635824;225;23718;-73
2020/12/10 09:02:00;;;;;;;18.50;12.27;;;;;;;3.04;93.65;99428.27;637561;225;28046;-73
2020/12/10 09:04:28;;;;;;;18.60;12.17;;;;;;;3.14;93.12;99429.67;635597;225;24865;-74
2020/12/10 09:06:56;;;;;;;18.93;10.87;;;;;;;3.11;93.41;99431.20;636045;224;24812;-72
2020/12/10 09:09:25;;;;;;;9.57;7.30;;;;;;;3.03;90.27;99420.68;636397;225;24829;-74
2020/12/10 09:11:51;;;;;;;15.10;9.77;;;;;;;3.06;91.53;99425.58;639909;224;28005;-74
2020/12/10 09:14:19;;;;;;;6.27;4.70;;;;;;;2.83;87.51;99402.48;638237;224;24799;-73
2020/12/10 09:16:47;;;;;;;6.00;4.97;;;;;;;3.00;86.10;99394.77;631808;226;28047;-73
2020/12/10 09:19:15;;;;;;;15.37;8.77;;;;;;;2.97;88.86;99412.52;647311;221;24804;-74
2020/12/10 09:21:43;;;;;;;14.30;9.10;;;;;;;3.07;90.35;99421.60;640713;224;24877;-74
2020/12/10 09:24:11;;;;;;;14.63;10.00;;;;;;;3.02;91.21;99431.89;632176;225;24824;-74
2020/12/10 09:26:39;;;;;;;14.07;8.40;;;;;;;2.85;90.49;99427.56;637285;225;28042;-73
2020/12/10 09:29:06;;;;;;;15.03;9.60;;;;;;;3.04;90.56;99429.55;636440;225;24866;-73
2020/12/10 09:31:34;;;;;;;15.63;10.13;;;;;;;3.21;90.15;99427.79;643408;220;26940;-75
2020/12/10 09:34:02;;;;;;;16.63;9.33;;;;;;;3.43;88.76;99423.58;637902;225;24862;-74
2020/12/10 09:36:30;;;;;;;13.43;9.23;;;;;;;3.75;86.37;99409.47;632635;221;32997;-74
2020/12/10 09:38:58;;;;;;;12.03;8.50;;;;;;;3.58;85.61;99407.77;644926;222;23681;-74
2020/12/10 09:41:26;;;;;;;9.30;6.83;;;;;;;3.80;84.88;99408.63;645152;221;24813;-74
2020/12/10 09:43:54;;;;;;;11.13;6.67;;;;;;;3.61;84.54;99399.46;641583;221;24819;-74
2020/12/10 09:46:22;;;;;;;8.45;6.40;;;;;;;3.68;83.21;99389.88;640295;221;32726;-72
2020/12/10 09:48:49;;;;;;;9.13;6.73;;;;;;;3.39;84.01;99392.16;647691;221;23710;-77
2020/12/10 09:51:17;;;;;;;10.50;7.20;;;;;;;3.42;84.01;99399.63;642013;222;24802;-73
2020/12/10 09:53:48;;;;;;;8.20;5.60;;;;;;;3.35;85.18;99399.74;642503;222;26976;-73
2020/12/10 09:56:37;;;;;;;10.93;7.67;;;;;;;3.39;84.26;99402.91;647574;221;28025;-72
2020/12/10 09:59:00;;;;;;;6.40;4.80;;;;;;;3.30;83.42;99392.05;642406;221;24822;-74
2020/12/10 10:01:28;;;;;;;6.47;4.90;;;;;;;3.28;82.50;99392.17;643323;221;24806;-73
2020/12/10 10:03:56;;;;;;;7.73;5.47;;;;;;;3.36;82.42;99391.56;648304;221;28021;-73
2020/12/10 10:06:24;;;;;;;7.03;5.00;;;;;;;3.36;82.62;99395.42;643744;221;24840;-74
2020/12/10 10:08:52;;;;;;;7.90;5.77;;;;;;;3.49;83.16;99395.62;645790;221;24880;-73
2020/12/10 10:11:19;;;;;;;9.20;5.30;;;;;;;3.37;84.92;99400.91;645630;221;24812;-74
2020/12/10 10:13:47;;;;;;;8.47;5.43;;;;;;;3.38;84.49;99398.68;639393;222;24801;-74
2020/12/10 10:16:15;;;;;;;6.27;5.10;;;;;;;3.28;83.97;99398.13;640505;222;24796;-76
2020/12/10 10:18:43;;;;;;;7.90;5.77;;;;;;;3.21;84.85;99396.95;645680;221;27083;-74
2020/12/10 10:21:11;;;;;;;8.30;5.50;;;;;;;3.24;84.21;99401.06;648580;222;24802;-74
2020/12/10 10:23:39;;;;;;;8.15;6.08;;;;;;;3.53;83.30;99391.90;643152;221;32482;-74
2020/12/10 10:26:07;;;;;;;9.30;6.07;;;;;;;3.24;83.10;99386.47;636109;224;23726;-74
2020/12/10 10:28:35;;;;;;;8.47;5.20;;;;;;;3.34;84.86;99394.26;637449;225;24844;-73
2020/12/10 10:31:02;;;;;;;8.10;5.80;;;;;;;3.25;85.53;99398.84;637236;225;26114;-73
2020/12/10 10:33:30;;;;;;;8.10;5.57;;;;;;;3.24;85.57;99396.75;637240;225;24649;-73
2020/12/10 10:35:58;;;;;;;7.00;5.27;;;;;;;3.26;84.48;99394.05;648244;221;24760;-73
2020/12/10 10:38:26;;;;;;;9.80;5.50;;;;;;;3.35;85.93;99393.31;637421;225;24799;-74
2020/12/10 10:40:54;;;;;;;9.90;5.70;;;;;;;3.25;85.66;99389.38;638133;225;24849;-74
2020/12/10 10:43:22;;;;;;;9.43;5.30;;;;;;;3.26;84.62;99385.06;636966;222;24807;-73
2020/12/10 10:45:50;;;;;;;8.23;5.00;;;;;;;3.05;85.11;99384.13;637328;225;27970;-73
2020/12/10 10:48:18;;;;;;;9.07;6.00;;;;;;;3.28;86.37;99391.70;639197;224;24785;-73
2020/12/10 10:50:46;;;;;;;9.47;5.80;;;;;;;3.34;86.52;99387.02;637394;225;24816;-74
2020/12/10 10:53:14;;;;;;;7.57;6.03;;;;;;;3.42;86.15;99390.63;626980;226;26076;-73
2020/12/10 10:55:42;;;;;;;8.97;6.17;;;;;;;3.41;85.56;99390.28;647384;221;24799;-74
2020/12/10 10:58:09;;;;;;;9.13;6.70;;;;;;;3.25;85.92;99389.85;645957;221;24795;-74
2020/12/10 11:00:37;;;;;;;9.67;6.27;;;;;;;3.38;86.03;99388.41;636915;224;26016;-74
2020/12/10 11:03:05;;;;;;;9.77;6.53;;;;;;;3.46;86.25;99389.45;636384;225;24851;-73
2020/12/10 11:05:33;;;;;;;8.97;6.00;;;;;;;3.49;85.21;99386.63;648512;221;24799;-73
2020/12/10 11:08:01;;;;;;;7.37;5.77;;;;;;;3.43;85.07;99387.59;636244;225;26325;-74
2020/12/10 11:10:29;;;;;;;9.83;6.40;;;;;;;3.41;85.91;99384.33;643804;221;24805;-74
2020/12/10 11:12:57;;;;;;;8.07;5.93;;;;;;;3.38;86.57;99393.11;644085;221;24788;-74
2020/12/10 11:15:24;;;;;;;9.10;5.77;;;;;;;3.38;85.86;99390.53;644458;221;24852;-74
2020/12/10 11:17:52;;;;;;;7.87;6.20;;;;;;;3.36;85.54;99387.24;634575;225;24830;-74
2020/12/10 11:20:20;;;;;;;8.13;6.07;;;;;;;3.38;85.07;99378.97;637083;225;24824;-74
2020/12/10 11:22:48;;;;;;;10.37;6.50;;;;;;;3.34;86.71;99392.97;649244;221;24787;-74
2020/12/10 11:25:16;;;;;;;12.27;6.57;;;;;;;3.42;85.82;99391.11;627249;226;24856;-74
2020/12/10 11:27:44;;;;;;;8.80;6.10;;;;;;;3.52;86.28;99390.27;636243;226;28050;-73
2020/12/10 11:30:11;;;;;;;8.13;6.72;;;;;;;3.63;84.53;99377.83;632308;224;33196;-73
2020/12/10 11:32:39;;;;;;;6.77;5.40;;;;;;;3.39;84.99;99379.31;637230;224;23686;-74
2020/12/10 11:35:07;;;;;;;8.93;6.53;;;;;;;3.37;85.20;99383.73;629459;225;24843;-74